Time;durP1;ratioP1;P1;durP2;ratioP2;P2;SDS_P1;SDS_P2;PMS_P1;PMS_P2;Temp;Humidity;BMP_temperature;BMP_pressure;BME280_temperature;BME280_humidity;BME280_pressure;Samples;Min_cycle;Max_cycle;Signal;HPM_P1;HPM_P2
2023/06/17 00:00:24;;;;;;;4.80;2.30;;;;;;;;;;5045536;28;20064;-63
2023/06/17 00:02:54;;;;;;;3.95;2.20;;;;;;;;;;5041487;28;20483;-63
2023/06/17 00:05:24;;;;;;;6.60;2.38;;;;;;;;;;5037514;28;20045;-63
2023/06/17 00:07:52;;;;;;;5.80;2.80;;;;;;;;;;5044003;28;20045;-64
2023/06/17 00:10:22;;;;;;;5.18;2.58;;;;;;;;;;5045401;28;20345;-65
2023/06/17 00:12:50;;;;;;;3.45;2.58;;;;;;;;;;5045683;28;20049;-63
2023/06/17 00:15:20;;;;;;;5.80;2.53;;;;;;;;;;5045026;28;20076;-63
2023/06/17 00:17:50;;;;;;;4.28;2.55;;;;;;;;;;5044827;28;20141;-63
2023/06/17 00:20:20;;;;;;;3.58;2.35;;;;;;;;;;5044613;28;20306;-63
2023/06/17 00:22:49;;;;;;;5.07;2.47;;;;;;;;;;5045324;28;20578;-64
2023/06/17 00:25:17;;;;;;;3.67;2.30;;;;;;;;;;5044866;28;20041;-64
2023/06/17 00:27:46;;;;;;;3.85;2.20;;;;;;;;;;5043409;28;20103;-63
2023/06/17 00:30:14;;;;;;;4.18;2.42;;;;;;;;;;5046992;28;20497;-63
2023/06/17 00:32:42;;;;;;;5.65;2.28;;;;;;;;;;5046888;28;20084;-64
2023/06/17 00:35:11;;;;;;;19.17;3.35;;;;;;;;;;5045807;28;20564;-64
2023/06/17 00:37:41;;;;;;;4.82;2.78;;;;;;;;;;5042742;28;20041;-63
2023/06/17 00:40:09;;;;;;;4.22;2.10;;;;;;;;;;5045352;28;20452;-63
2023/06/17 00:42:39;;;;;;;6.90;2.35;;;;;;;;;;5050056;28;20052;-63
2023/06/17 00:45:08;;;;;;;5.00;2.20;;;;;;;;;;5045417;28;20080;-64
2023/06/17 00:47:37;;;;;;;4.25;2.35;;;;;;;;;;5043794;28;20072;-63
2023/06/17 00:50:07;;;;;;;6.13;3.22;;;;;;;;;;5043596;28;20046;-63
2023/06/17 00:52:36;;;;;;;3.17;1.95;;;;;;;;;;5045898;28;20048;-63
2023/06/17 00:55:11;;;;;;;3.87;2.63;;;;;;;;;;5047442;28;20413;-63
2023/06/17 00:57:40;;;;;;;5.32;2.70;;;;;;;;;;5046236;28;20102;-64
2023/06/17 01:00:10;;;;;;;6.95;2.67;;;;;;;;;;5044654;28;20128;-64
2023/06/17 01:02:41;;;;;;;5.82;2.20;;;;;;;;;;5067791;22;20049;-60
2023/06/17 01:05:11;;;;;;;4.82;2.65;;;;;;;;;;5072266;28;20045;-63
2023/06/17 01:07:45;;;;;;;4.57;2.30;;;;;;;;;;5073685;28;20044;-60
2023/06/17 01:10:18;;;;;;;4.82;2.47;;;;;;;;;;5072571;28;20049;-60
2023/06/17 01:12:48;;;;;;;4.80;2.40;;;;;;;;;;5073758;28;20056;-60
2023/06/17 01:15:17;;;;;;;4.57;2.20;;;;;;;;;;5072921;28;20044;-60
2023/06/17 01:17:46;;;;;;;7.20;2.60;;;;;;;;;;5072652;28;20048;-59
2023/06/17 01:20:16;;;;;;;3.95;2.40;;;;;;;;;;5072834;28;20098;-61
2023/06/17 01:22:46;;;;;;;4.78;2.25;;;;;;;;;;5073544;28;20088;-60
2023/06/17 01:25:16;;;;;;;6.03;2.88;;;;;;;;;;5072989;28;20045;-60
2023/06/17 01:27:46;;;;;;;3.22;2.25;;;;;;;;;;5077531;28;20114;-59
2023/06/17 01:30:15;;;;;;;4.65;2.58;;;;;;;;;;5077033;28;20060;-60
2023/06/17 01:32:43;;;;;;;5.18;2.53;;;;;;;;;;5070584;28;20057;-59
2023/06/17 01:35:13;;;;;;;3.70;2.38;;;;;;;;;;5063849;28;20044;-59
2023/06/17 01:37:43;;;;;;;4.65;2.80;;;;;;;;;;5062277;28;20452;-59
2023/06/17 01:40:13;;;;;;;4.05;2.30;;;;;;;;;;5068034;28;20079;-59
2023/06/17 01:42:46;;;;;;;5.32;2.63;;;;;;;;;;5060958;28;20081;-59
2023/06/17 01:45:15;;;;;;;5.57;2.53;;;;;;;;;;5059101;28;20057;-60
2023/06/17 01:47:43;;;;;;;5.95;2.80;;;;;;;;;;5044424;28;20072;-64
2023/06/17 01:50:12;;;;;;;4.53;2.55;;;;;;;;;;5047078;28;20053;-63
2023/06/17 01:52:40;;;;;;;4.07;2.67;;;;;;;;;;5042163;28;20057;-59
2023/06/17 01:55:09;;;;;;;3.67;2.30;;;;;;;;;;5055240;28;20072;-59
2023/06/17 01:57:37;;;;;;;6.13;2.80;;;;;;;;;;5068869;28;20076;-59
2023/06/17 02:00:08;;;;;;;5.65;2.80;;;;;;;;;;5067112;28;20131;-60
2023/06/17 02:02:37;;;;;;;4.13;2.38;;;;;;;;;;5069141;28;20084;-59
2023/06/17 02:05:06;;;;;;;4.18;2.50;;;;;;;;;;5066849;28;20444;-60
2023/06/17 02:07:34;;;;;;;3.65;2.20;;;;;;;;;;5065022;28;20125;-59
2023/06/17 02:10:03;;;;;;;3.78;2.63;;;;;;;;;;5068126;28;20041;-60
2023/06/17 02:12:32;;;;;;;8.15;2.58;;;;;;;;;;5065833;28;20045;-61
2023/06/17 02:15:00;;;;;;;5.68;2.53;;;;;;;;;;5067237;28;20147;-59
2023/06/17 02:17:30;;;;;;;8.65;3.00;;;;;;;;;;5068500;28;20497;-60
2023/06/17 02:19:58;;;;;;;5.07;2.40;;;;;;;;;;5059071;28;20049;-59
2023/06/17 02:22:27;;;;;;;4.32;2.15;;;;;;;;;;5061509;28;20245;-59
2023/06/17 02:24:55;;;;;;;4.50;2.58;;;;;;;;;;5062954;28;20079;-59
2023/06/17 02:27:24;;;;;;;4.03;2.25;;;;;;;;;;5065976;28;20568;-59
2023/06/17 02:29:52;;;;;;;4.97;2.30;;;;;;;;;;5067219;28;20427;-59
2023/06/17 02:32:20;;;;;;;4.97;2.53;;;;;;;;;;5068685;28;20456;-59
2023/06/17 02:34:50;;;;;;;5.15;2.50;;;;;;;;;;5067957;28;20048;-59
2023/06/17 02:37:19;;;;;;;5.70;2.72;;;;;;;;;;5068541;28;20040;-60
2023/06/17 02:39:47;;;;;;;5.75;2.72;;;;;;;;;;5067200;28;20139;-59
2023/06/17 02:42:15;;;;;;;4.90;2.50;;;;;;;;;;5065312;28;20059;-59
2023/06/17 02:44:44;;;;;;;4.55;1.85;;;;;;;;;;5066721;28;20052;-60
2023/06/17 02:47:12;;;;;;;6.13;2.83;;;;;;;;;;5064032;28;20036;-60
2023/06/17 02:49:41;;;;;;;4.57;2.33;;;;;;;;;;5064028;28;20401;-61
2023/06/17 02:52:11;;;;;;;5.30;2.60;;;;;;;;;;5066045;28;20178;-59
2023/06/17 02:54:39;;;;;;;5.03;2.42;;;;;;;;;;5067826;28;20176;-60
2023/06/17 02:57:08;;;;;;;3.20;2.25;;;;;;;;;;5067596;28;20056;-59
2023/06/17 02:59:37;;;;;;;4.18;2.63;;;;;;;;;;5067581;28;20087;-62
2023/06/17 03:02:06;;;;;;;5.40;2.60;;;;;;;;;;5065014;28;20040;-60
2023/06/17 03:04:35;;;;;;;5.43;2.83;;;;;;;;;;5066653;28;20468;-60
2023/06/17 03:07:04;;;;;;;5.28;2.42;;;;;;;;;;5067286;28;20459;-63
2023/06/17 03:09:34;;;;;;;3.85;2.20;;;;;;;;;;5069649;28;20118;-61
2023/06/17 03:12:04;;;;;;;3.72;2.20;;;;;;;;;;5068489;28;20084;-61
2023/06/17 03:14:33;;;;;;;5.55;2.30;;;;;;;;;;5063457;28;20094;-62
2023/06/17 03:17:03;;;;;;;6.55;2.50;;;;;;;;;;5066077;28;20049;-61
2023/06/17 03:19:32;;;;;;;8.25;2.50;;;;;;;;;;5064914;28;20573;-64
2023/06/17 03:22:00;;;;;;;4.97;2.75;;;;;;;;;;5067290;28;20493;-62
2023/06/17 03:24:29;;;;;;;4.45;2.67;;;;;;;;;;5066083;28;20489;-63
2023/06/17 03:26:59;;;;;;;3.88;2.38;;;;;;;;;;5067213;28;20048;-63
2023/06/17 03:29:27;;;;;;;3.97;2.50;;;;;;;;;;5062009;28;20048;-61
2023/06/17 03:31:56;;;;;;;4.30;2.17;;;;;;;;;;5065135;28;21410;-63
2023/06/17 03:34:25;;;;;;;3.38;2.40;;;;;;;;;;5065680;28;20052;-62
2023/06/17 03:36:56;;;;;;;5.38;3.00;;;;;;;;;;5067075;28;20048;-63
2023/06/17 03:39:24;;;;;;;4.25;2.65;;;;;;;;;;5066861;28;20481;-62
2023/06/17 03:41:53;;;;;;;6.47;2.47;;;;;;;;;;5067271;28;20485;-65
2023/06/17 03:44:22;;;;;;;5.25;2.30;;;;;;;;;;5062328;28;20102;-66
2023/06/17 03:46:51;;;;;;;4.35;2.47;;;;;;;;;;5046113;28;20073;-61
2023/06/17 03:49:19;;;;;;;6.95;2.30;;;;;;;;;;5039636;28;20426;-65
2023/06/17 03:51:48;;;;;;;3.25;1.83;;;;;;;;;;5047647;28;20052;-63
2023/06/17 03:54:16;;;;;;;5.95;2.50;;;;;;;;;;5044532;28;20103;-62
2023/06/17 03:56:44;;;;;;;4.20;2.70;;;;;;;;;;5065504;28;20083;-62
2023/06/17 03:59:13;;;;;;;4.65;2.60;;;;;;;;;;5063303;28;20342;-62
2023/06/17 04:01:42;;;;;;;6.20;2.60;;;;;;;;;;5059643;28;20041;-67
2023/06/17 04:04:11;;;;;;;3.90;2.20;;;;;;;;;;5063349;28;20081;-62
2023/06/17 04:06:40;;;;;;;4.53;2.40;;;;;;;;;;5063666;28;20056;-63
2023/06/17 04:09:08;;;;;;;3.88;2.40;;;;;;;;;;5062665;28;20057;-62
2023/06/17 04:11:37;;;;;;;3.50;2.53;;;;;;;;;;5067074;28;20487;-61
2023/06/17 04:14:05;;;;;;;6.10;2.53;;;;;;;;;;5065930;28;20477;-64
2023/06/17 04:16:35;;;;;;;4.63;2.65;;;;;;;;;;5060164;28;20077;-62
2023/06/17 04:19:05;;;;;;;4.80;2.20;;;;;;;;;;5060491;28;20040;-64
2023/06/17 04:21:34;;;;;;;5.65;2.65;;;;;;;;;;5064729;28;20045;-62
2023/06/17 04:24:02;;;;;;;5.28;2.90;;;;;;;;;;5054071;28;20044;-62
2023/06/17 04:26:31;;;;;;;4.57;2.22;;;;;;;;;;5057670;28;20052;-62
2023/06/17 04:29:00;;;;;;;5.25;2.35;;;;;;;;;;5062749;28;20497;-62
2023/06/17 04:31:29;;;;;;;5.13;2.53;;;;;;;;;;5061838;28;20550;-62
2023/06/17 04:33:59;;;;;;;6.10;2.67;;;;;;;;;;5062868;28;20075;-62
2023/06/17 04:36:29;;;;;;;4.85;2.80;;;;;;;;;;5055263;28;20493;-62
2023/06/17 04:38:58;;;;;;;7.30;2.83;;;;;;;;;;5062728;28;20049;-62
2023/06/17 04:41:27;;;;;;;6.28;2.85;;;;;;;;;;5055228;28;20104;-64
2023/06/17 04:43:55;;;;;;;6.88;2.90;;;;;;;;;;5066833;28;20102;-63
2023/06/17 04:46:24;;;;;;;5.53;2.70;;;;;;;;;;5064425;28;20069;-62
2023/06/17 04:48:53;;;;;;;9.10;3.05;;;;;;;;;;5062118;28;20045;-64
2023/06/17 04:51:21;;;;;;;4.78;2.63;;;;;;;;;;5062343;28;20534;-63
2023/06/17 04:53:51;;;;;;;4.43;2.55;;;;;;;;;;5064314;28;20064;-65
2023/06/17 04:56:19;;;;;;;5.68;2.70;;;;;;;;;;5065068;28;20051;-62
2023/06/17 04:58:48;;;;;;;5.40;2.25;;;;;;;;;;5066159;28;20457;-61
2023/06/17 05:01:16;;;;;;;4.32;2.67;;;;;;;;;;5064733;28;20048;-63
2023/06/17 05:03:45;;;;;;;5.53;2.40;;;;;;;;;;5064377;28;20052;-62
2023/06/17 05:06:13;;;;;;;4.72;2.58;;;;;;;;;;5061182;28;20043;-63
2023/06/17 05:08:41;;;;;;;4.43;2.53;;;;;;;;;;5063721;28;20087;-63
2023/06/17 05:11:11;;;;;;;6.72;2.40;;;;;;;;;;5067242;28;20081;-61
2023/06/17 05:13:40;;;;;;;5.18;2.70;;;;;;;;;;5065337;28;20091;-61
2023/06/17 05:16:08;;;;;;;4.35;2.40;;;;;;;;;;5064214;28;20405;-62
2023/06/17 05:18:36;;;;;;;5.72;2.63;;;;;;;;;;5066857;28;20357;-61
2023/06/17 05:21:05;;;;;;;5.75;2.38;;;;;;;;;;5060973;28;20049;-61
2023/06/17 05:23:33;;;;;;;4.60;2.67;;;;;;;;;;5063461;28;20037;-61
2023/06/17 05:26:02;;;;;;;10.88;2.53;;;;;;;;;;5066382;28;20052;-62
2023/06/17 05:28:31;;;;;;;4.10;2.30;;;;;;;;;;5064553;28;20109;-62
2023/06/17 05:31:00;;;;;;;6.05;2.45;;;;;;;;;;5056958;28;20045;-62
2023/06/17 05:33:28;;;;;;;4.05;2.40;;;;;;;;;;5062948;28;20041;-64
2023/06/17 05:36:00;;;;;;;6.65;2.70;;;;;;;;;;5065199;28;20556;-61
2023/06/17 05:38:28;;;;;;;4.40;2.60;;;;;;;;;;5062111;28;20056;-63
2023/06/17 05:40:57;;;;;;;7.75;2.80;;;;;;;;;;5061406;28;20053;-62
2023/06/17 05:43:27;;;;;;;5.93;2.20;;;;;;;;;;5065545;28;20102;-62
2023/06/17 05:45:57;;;;;;;4.10;2.65;;;;;;;;;;5063684;28;20072;-62
2023/06/17 05:48:25;;;;;;;5.72;2.90;;;;;;;;;;5066145;28;20059;-61
2023/06/17 05:50:54;;;;;;;4.55;2.30;;;;;;;;;;5063150;28;20076;-64
2023/06/17 05:53:22;;;;;;;3.90;2.42;;;;;;;;;;5052240;28;20094;-63
2023/06/17 05:55:50;;;;;;;4.07;2.42;;;;;;;;;;5062184;28;20053;-63
2023/06/17 05:58:19;;;;;;;5.88;2.60;;;;;;;;;;5062558;28;20080;-62
2023/06/17 06:00:47;;;;;;;5.10;2.97;;;;;;;;;;5059998;28;20044;-61
2023/06/17 06:03:17;;;;;;;4.72;2.60;;;;;;;;;;5062715;28;20056;-62
2023/06/17 06:05:45;;;;;;;4.85;2.88;;;;;;;;;;5061928;28;20086;-62
2023/06/17 06:08:14;;;;;;;4.47;2.40;;;;;;;;;;5065202;28;20049;-62
2023/06/17 06:10:42;;;;;;;5.03;2.33;;;;;;;;;;5062190;28;20099;-62
2023/06/17 06:13:11;;;;;;;5.72;2.58;;;;;;;;;;5057285;28;20040;-62
2023/06/17 06:15:39;;;;;;;9.80;2.72;;;;;;;;;;5069034;28;20493;-62
2023/06/17 06:18:07;;;;;;;3.63;2.33;;;;;;;;;;5064188;28;20044;-62
2023/06/17 06:20:37;;;;;;;3.92;2.40;;;;;;;;;;5068080;28;20067;-65
2023/06/17 06:23:06;;;;;;;7.43;2.40;;;;;;;;;;5064183;28;20044;-64
2023/06/17 06:25:34;;;;;;;4.15;2.95;;;;;;;;;;5064336;28;20048;-63
2023/06/17 06:28:03;;;;;;;7.15;3.45;;;;;;;;;;5060598;28;20088;-63
2023/06/17 06:30:31;;;;;;;5.32;2.53;;;;;;;;;;5063711;28;20946;-62
2023/06/17 06:32:59;;;;;;;4.75;2.80;;;;;;;;;;5061541;28;20563;-63
2023/06/17 06:35:28;;;;;;;4.93;2.45;;;;;;;;;;5057359;28;20128;-62
2023/06/17 06:37:58;;;;;;;4.22;2.40;;;;;;;;;;5064548;28;20045;-62
2023/06/17 06:40:26;;;;;;;4.45;2.80;;;;;;;;;;5066103;28;20083;-62
2023/06/17 06:42:54;;;;;;;4.10;2.60;;;;;;;;;;5066620;28;20056;-65
2023/06/17 06:45:23;;;;;;;4.90;2.75;;;;;;;;;;5067279;28;20604;-64
2023/06/17 06:47:51;;;;;;;4.10;2.78;;;;;;;;;;5066473;28;20107;-63
2023/06/17 06:50:20;;;;;;;4.32;2.65;;;;;;;;;;5064635;28;20056;-63
2023/06/17 06:52:49;;;;;;;5.53;2.63;;;;;;;;;;5062883;28;20565;-62
2023/06/17 06:55:18;;;;;;;4.35;2.47;;;;;;;;;;5061277;28;20103;-61
2023/06/17 06:57:47;;;;;;;4.75;2.90;;;;;;;;;;5069614;28;20132;-62
2023/06/17 07:00:16;;;;;;;4.63;2.33;;;;;;;;;;5068781;28;20075;-62
2023/06/17 07:02:44;;;;;;;4.85;2.78;;;;;;;;;;5066813;28;20057;-63
2023/06/17 07:05:13;;;;;;;4.53;3.00;;;;;;;;;;5066386;28;20075;-62
2023/06/17 07:07:42;;;;;;;4.88;2.63;;;;;;;;;;5070536;28;20127;-63
2023/06/17 07:10:10;;;;;;;5.25;2.83;;;;;;;;;;5067450;28;20063;-63
2023/06/17 07:12:42;;;;;;;4.60;2.78;;;;;;;;;;5066106;28;20074;-67
2023/06/17 07:15:14;;;;;;;8.32;3.90;;;;;;;;;;5065731;28;20053;-63
2023/06/17 07:17:42;;;;;;;2.92;2.25;;;;;;;;;;5067526;28;20486;-64
2023/06/17 07:20:11;;;;;;;4.65;2.60;;;;;;;;;;5069241;28;20048;-63
2023/06/17 07:22:39;;;;;;;6.72;2.33;;;;;;;;;;5062726;28;20053;-64
2023/06/17 07:25:09;;;;;;;3.60;2.47;;;;;;;;;;5066049;28;20041;-64
2023/06/17 07:27:39;;;;;;;3.13;2.15;;;;;;;;;;5065804;28;20051;-63
2023/06/17 07:30:08;;;;;;;6.15;2.70;;;;;;;;;;5066759;28;20139;-63
2023/06/17 07:32:36;;;;;;;2.78;2.15;;;;;;;;;;5066340;28;20052;-62
2023/06/17 07:35:06;;;;;;;6.82;2.67;;;;;;;;;;5059708;28;20045;-64
2023/06/17 07:37:34;;;;;;;4.90;2.30;;;;;;;;;;5058790;28;20555;-65
2023/06/17 07:40:05;;;;;;;3.70;2.15;;;;;;;;;;5054573;28;20509;-65
2023/06/17 07:42:33;;;;;;;5.00;2.40;;;;;;;;;;5065774;28;20083;-63
2023/06/17 07:45:03;;;;;;;3.97;2.28;;;;;;;;;;5060473;28;20049;-63
2023/06/17 07:47:31;;;;;;;3.58;2.33;;;;;;;;;;5057736;28;20067;-64
2023/06/17 07:50:00;;;;;;;3.67;2.17;;;;;;;;;;5061586;28;20052;-63
2023/06/17 07:52:29;;;;;;;3.03;2.20;;;;;;;;;;5063208;28;20086;-64
2023/06/17 07:54:57;;;;;;;3.63;2.25;;;;;;;;;;5063170;28;20122;-63
2023/06/17 07:57:25;;;;;;;2.80;1.90;;;;;;;;;;5064306;28;20040;-64
2023/06/17 07:59:54;;;;;;;4.32;2.30;;;;;;;;;;5060846;28;20044;-64
2023/06/17 08:02:24;;;;;;;6.68;2.22;;;;;;;;;;5064050;28;20364;-65
2023/06/17 08:04:53;;;;;;;3.72;2.15;;;;;;;;;;5057648;28;20372;-62
2023/06/17 08:07:21;;;;;;;3.55;2.13;;;;;;;;;;5063518;28;20052;-65
2023/06/17 08:09:49;;;;;;;3.25;2.40;;;;;;;;;;5064963;28;20131;-64
2023/06/17 08:12:18;;;;;;;4.15;2.22;;;;;;;;;;5063502;28;20646;-64
2023/06/17 08:14:46;;;;;;;3.63;1.77;;;;;;;;;;5060961;28;20075;-66
2023/06/17 08:17:14;;;;;;;4.70;2.70;;;;;;;;;;5062305;28;20068;-65
2023/06/17 08:19:44;;;;;;;6.80;2.25;;;;;;;;;;5063626;28;20390;-63
2023/06/17 08:22:13;;;;;;;4.43;2.22;;;;;;;;;;5064040;28;20056;-62
2023/06/17 08:24:42;;;;;;;5.90;2.60;;;;;;;;;;5062424;28;20135;-61
2023/06/17 08:27:12;;;;;;;4.47;2.60;;;;;;;;;;5059258;28;20052;-65
2023/06/17 08:29:41;;;;;;;3.40;2.15;;;;;;;;;;5064858;28;20053;-66
2023/06/17 08:32:09;;;;;;;5.50;3.10;;;;;;;;;;5063218;28;20056;-64
2023/06/17 08:34:37;;;;;;;4.63;2.50;;;;;;;;;;5063998;28;20079;-64
2023/06/17 08:37:08;;;;;;;6.65;2.25;;;;;;;;;;5064380;28;20110;-63
2023/06/17 08:39:39;;;;;;;3.38;2.22;;;;;;;;;;5056631;28;20040;-63
2023/06/17 08:42:08;;;;;;;6.47;3.00;;;;;;;;;;5062074;28;20055;-63
2023/06/17 08:44:40;;;;;;;4.35;2.17;;;;;;;;;;5062064;28;20048;-63
2023/06/17 08:47:08;;;;;;;5.10;2.40;;;;;;;;;;5059328;28;20481;-64
2023/06/17 08:49:37;;;;;;;4.38;2.30;;;;;;;;;;5062696;28;20076;-64
2023/06/17 08:52:06;;;;;;;4.03;2.17;;;;;;;;;;5062270;28;20037;-62
2023/06/17 08:54:40;;;;;;;3.65;2.60;;;;;;;;;;5063160;28;20048;-61
2023/06/17 08:57:11;;;;;;;4.25;2.30;;;;;;;;;;5064625;28;20139;-63
2023/06/17 08:59:40;;;;;;;4.45;2.47;;;;;;;;;;5061643;28;20488;-61
2023/06/17 09:02:10;;;;;;;3.63;1.98;;;;;;;;;;5065692;28;20114;-62
2023/06/17 09:04:38;;;;;;;4.18;2.35;;;;;;;;;;5066847;28;20382;-62
2023/06/17 09:07:09;;;;;;;4.65;2.25;;;;;;;;;;5062098;28;20500;-62
2023/06/17 09:09:39;;;;;;;9.57;3.05;;;;;;;;;;5063233;28;20054;-61
2023/06/17 09:12:08;;;;;;;4.63;2.42;;;;;;;;;;5060956;28;20041;-63
2023/06/17 09:14:38;;;;;;;3.13;1.92;;;;;;;;;;5063441;28;20059;-61
2023/06/17 09:17:06;;;;;;;5.40;2.35;;;;;;;;;;5058927;28;20053;-61
2023/06/17 09:19:35;;;;;;;3.40;2.28;;;;;;;;;;5061841;28;20063;-61
2023/06/17 09:22:06;;;;;;;4.03;2.45;;;;;;;;;;5058116;28;20134;-60
2023/06/17 09:24:36;;;;;;;3.90;2.70;;;;;;;;;;5061668;28;20689;-62
2023/06/17 09:27:06;;;;;;;4.43;2.30;;;;;;;;;;5065266;28;20059;-61
2023/06/17 09:29:35;;;;;;;2.95;2.10;;;;;;;;;;5064477;28;20570;-61
2023/06/17 09:32:05;;;;;;;3.92;2.00;;;;;;;;;;5057025;28;20403;-61
2023/06/17 09:34:33;;;;;;;3.92;2.63;;;;;;;;;;5066193;28;20103;-61
2023/06/17 09:37:03;;;;;;;5.05;2.50;;;;;;;;;;5064561;28;20098;-62
2023/06/17 09:39:32;;;;;;;3.30;2.28;;;;;;;;;;5065927;28;20052;-61
2023/06/17 09:42:10;;;;;;;5.45;2.22;;;;;;;;;;5061110;28;20041;-63
2023/06/17 09:44:39;;;;;;;5.50;2.38;;;;;;;;;;5064440;28;20057;-61
2023/06/17 09:47:07;;;;;;;3.85;2.33;;;;;;;;;;5065369;28;20040;-61
2023/06/17 09:49:38;;;;;;;4.45;2.35;;;;;;;;;;5069495;28;20048;-62
2023/06/17 09:52:08;;;;;;;5.28;2.47;;;;;;;;;;5066013;28;20053;-62
2023/06/17 09:54:37;;;;;;;4.32;2.40;;;;;;;;;;5067114;28;20470;-62
2023/06/17 09:57:09;;;;;;;5.15;2.40;;;;;;;;;;5068373;28;20041;-60
2023/06/17 09:59:39;;;;;;;5.20;2.90;;;;;;;;;;5060591;28;20052;-60
2023/06/17 10:02:09;;;;;;;3.75;2.35;;;;;;;;;;5065988;28;20079;-61
2023/06/17 10:04:37;;;;;;;4.57;2.15;;;;;;;;;;5067233;28;20094;-62
2023/06/17 10:07:07;;;;;;;5.15;2.83;;;;;;;;;;5068462;28;20071;-60
2023/06/17 10:09:35;;;;;;;3.22;2.10;;;;;;;;;;5070890;28;20102;-61
2023/06/17 10:12:04;;;;;;;4.10;2.33;;;;;;;;;;5068792;28;20142;-60
2023/06/17 10:14:33;;;;;;;3.47;2.13;;;;;;;;;;5068036;28;20041;-60
2023/06/17 10:17:05;;;;;;;5.05;2.00;;;;;;;;;;5068629;28;20382;-61
2023/06/17 10:19:35;;;;;;;4.32;2.50;;;;;;;;;;5067937;28;20075;-59
2023/06/17 10:22:06;;;;;;;4.82;2.30;;;;;;;;;;5069101;28;20055;-59
2023/06/17 10:24:34;;;;;;;4.15;2.60;;;;;;;;;;5066497;28;20410;-62
2023/06/17 10:27:04;;;;;;;3.22;2.60;;;;;;;;;;5069866;28;20139;-61
2023/06/17 10:29:33;;;;;;;4.63;2.78;;;;;;;;;;5067668;28;20420;-61
2023/06/17 10:32:18;;;;;;;4.68;2.53;;;;;;;;;;5062075;28;20094;-60
2023/06/17 10:35:01;;;;;;;5.38;2.97;;;;;;;;;;5069637;28;20109;-61
2023/06/17 10:37:29;;;;;;;4.78;2.55;;;;;;;;;;5066645;28;20044;-61
2023/06/17 10:40:19;;;;;;;6.90;2.78;;;;;;;;;;5061022;28;20086;-61
2023/06/17 10:42:54;;;;;;;5.68;2.50;;;;;;;;;;5062674;28;20048;-60
2023/06/17 10:45:22;;;;;;;3.30;2.38;;;;;;;;;;5069363;28;20095;-60
2023/06/17 10:47:52;;;;;;;5.00;2.50;;;;;;;;;;5068951;28;20048;-61
2023/06/17 10:50:23;;;;;;;3.15;2.22;;;;;;;;;;5061111;28;20048;-61
2023/06/17 10:53:00;;;;;;;5.00;2.63;;;;;;;;;;5070666;28;20090;-60
2023/06/17 10:55:28;;;;;;;5.97;3.10;;;;;;;;;;5065767;28;20044;-64
2023/06/17 10:57:59;;;;;;;4.65;2.47;;;;;;;;;;5066529;28;20053;-61
2023/06/17 11:00:27;;;;;;;4.60;2.63;;;;;;;;;;5066018;28;20410;-62
2023/06/17 11:02:57;;;;;;;3.60;2.20;;;;;;;;;;5066220;28;20248;-60
2023/06/17 11:05:26;;;;;;;6.85;2.80;;;;;;;;;;5068324;28;20504;-60
2023/06/17 11:07:54;;;;;;;4.03;2.38;;;;;;;;;;5068100;28;20048;-62
2023/06/17 11:10:26;;;;;;;5.28;2.78;;;;;;;;;;5064334;28;20044;-61
2023/06/17 11:12:55;;;;;;;4.95;2.60;;;;;;;;;;5067673;28;20048;-59
2023/06/17 11:15:23;;;;;;;4.45;2.53;;;;;;;;;;5065868;28;20502;-61
2023/06/17 11:18:01;;;;;;;5.40;2.85;;;;;;;;;;5058175;28;20135;-60
2023/06/17 11:20:31;;;;;;;4.55;2.58;;;;;;;;;;5068786;28;20094;-61
2023/06/17 11:22:59;;;;;;;4.18;2.67;;;;;;;;;;5067201;28;20477;-61
2023/06/17 11:25:30;;;;;;;4.10;2.35;;;;;;;;;;5066718;28;20082;-60
2023/06/17 11:28:12;;;;;;;6.85;2.75;;;;;;;;;;5065114;28;20051;-60
2023/06/17 11:30:41;;;;;;;5.10;2.63;;;;;;;;;;5061901;28;20387;-60
2023/06/17 11:33:11;;;;;;;4.32;2.78;;;;;;;;;;5068384;28;20076;-62
2023/06/17 11:35:40;;;;;;;3.78;2.30;;;;;;;;;;5064192;28;20067;-61
2023/06/17 11:38:08;;;;;;;3.33;2.15;;;;;;;;;;5069015;28;20044;-60
2023/06/17 11:40:36;;;;;;;3.20;2.47;;;;;;;;;;5062988;28;20067;-60
2023/06/17 11:43:05;;;;;;;4.40;2.88;;;;;;;;;;5067338;28;20051;-61
2023/06/17 11:45:34;;;;;;;3.25;2.38;;;;;;;;;;5064439;28;20063;-61
2023/06/17 11:48:06;;;;;;;4.00;2.47;;;;;;;;;;5062906;28;20056;-62
2023/06/17 11:50:38;;;;;;;4.85;2.75;;;;;;;;;;5059696;28;20049;-63
2023/06/17 11:53:07;;;;;;;4.00;2.83;;;;;;;;;;5065180;28;20045;-62
2023/06/17 11:55:36;;;;;;;4.93;2.97;;;;;;;;;;5064600;28;20572;-61
2023/06/17 11:58:05;;;;;;;4.20;2.60;;;;;;;;;;5053911;28;20051;-63
2023/06/17 12:00:36;;;;;;;5.43;3.10;;;;;;;;;;5060541;28;20117;-63
2023/06/17 12:03:04;;;;;;;5.55;2.40;;;;;;;;;;5058904;28;20052;-62
2023/06/17 12:05:33;;;;;;;4.78;2.67;;;;;;;;;;5061562;28;20048;-61
2023/06/17 12:08:03;;;;;;;4.30;2.53;;;;;;;;;;5065559;28;20086;-61
2023/06/17 12:10:37;;;;;;;3.63;2.30;;;;;;;;;;5062237;28;20052;-60
2023/06/17 12:13:06;;;;;;;5.95;3.30;;;;;;;;;;5064462;28;20517;-61
2023/06/17 12:15:34;;;;;;;4.57;2.70;;;;;;;;;;5058155;28;20072;-61
2023/06/17 12:18:10;;;;;;;5.88;2.65;;;;;;;;;;5070964;28;20492;-61
2023/06/17 12:20:39;;;;;;;4.47;2.70;;;;;;;;;;5063172;28;20428;-62
2023/06/17 12:23:09;;;;;;;7.90;2.70;;;;;;;;;;5070809;28;20476;-62
2023/06/17 12:25:37;;;;;;;5.15;2.88;;;;;;;;;;5068505;28;20453;-61
2023/06/17 12:28:06;;;;;;;4.97;2.67;;;;;;;;;;5064724;28;20117;-62
2023/06/17 12:30:34;;;;;;;5.82;2.47;;;;;;;;;;5066877;28;20048;-67
2023/06/17 12:33:03;;;;;;;4.75;2.88;;;;;;;;;;5069860;28;20056;-66
2023/06/17 12:35:31;;;;;;;4.22;2.58;;;;;;;;;;5068484;28;20484;-65
2023/06/17 12:38:00;;;;;;;3.60;2.17;;;;;;;;;;5056437;28;20068;-65
2023/06/17 12:40:29;;;;;;;5.32;2.90;;;;;;;;;;5055595;28;20051;-65
2023/06/17 12:42:58;;;;;;;4.07;2.28;;;;;;;;;;5064631;28;20044;-65
2023/06/17 12:45:27;;;;;;;4.50;2.85;;;;;;;;;;5069998;28;20044;-67
2023/06/17 12:47:56;;;;;;;4.88;2.85;;;;;;;;;;5069748;28;20045;-67
2023/06/17 12:50:25;;;;;;;5.47;2.70;;;;;;;;;;5065113;28;20052;-61
2023/06/17 12:52:55;;;;;;;4.05;2.53;;;;;;;;;;5069484;28;20052;-60
2023/06/17 12:55:23;;;;;;;4.28;2.42;;;;;;;;;;5063320;28;20097;-61
2023/06/17 12:57:53;;;;;;;4.18;2.80;;;;;;;;;;5064312;28;20056;-60
2023/06/17 13:00:21;;;;;;;4.40;2.35;;;;;;;;;;5066136;28;20540;-59
2023/06/17 13:02:50;;;;;;;4.28;2.50;;;;;;;;;;5065582;28;20056;-59
2023/06/17 13:05:19;;;;;;;5.90;2.95;;;;;;;;;;5067207;28;20092;-63
2023/06/17 13:07:48;;;;;;;3.67;2.78;;;;;;;;;;5065902;28;20408;-61
2023/06/17 13:10:16;;;;;;;3.22;2.35;;;;;;;;;;5067071;28;20075;-64
2023/06/17 13:12:44;;;;;;;6.05;3.30;;;;;;;;;;5058950;28;20114;-60
2023/06/17 13:15:14;;;;;;;4.07;2.53;;;;;;;;;;5059270;28;20048;-62
2023/06/17 13:17:42;;;;;;;6.07;2.67;;;;;;;;;;5058877;28;20076;-60
2023/06/17 13:20:11;;;;;;;4.43;2.83;;;;;;;;;;5060179;28;20045;-59
2023/06/17 13:22:43;;;;;;;3.78;2.80;;;;;;;;;;5066333;28;20098;-59
2023/06/17 13:25:11;;;;;;;3.40;2.35;;;;;;;;;;5071339;28;20076;-60
2023/06/17 13:27:40;;;;;;;4.47;2.58;;;;;;;;;;5071416;28;20080;-62
2023/06/17 13:30:09;;;;;;;3.47;2.38;;;;;;;;;;5073818;28;20551;-59
2023/06/17 13:32:39;;;;;;;4.47;2.75;;;;;;;;;;5073811;28;20056;-60
2023/06/17 13:35:07;;;;;;;2.95;2.22;;;;;;;;;;5066500;28;20472;-61
2023/06/17 13:37:36;;;;;;;6.55;2.92;;;;;;;;;;5066379;28;20113;-60
2023/06/17 13:40:04;;;;;;;4.25;2.85;;;;;;;;;;5072735;28;20113;-62
2023/06/17 13:42:33;;;;;;;5.10;2.55;;;;;;;;;;5071862;28;20051;-60
2023/06/17 13:45:03;;;;;;;5.07;2.72;;;;;;;;;;5072138;28;20040;-60
2023/06/17 13:47:32;;;;;;;4.85;2.60;;;;;;;;;;5073338;28;20045;-60
2023/06/17 13:50:02;;;;;;;3.72;2.58;;;;;;;;;;5073374;28;20052;-61
2023/06/17 13:52:30;;;;;;;4.75;3.00;;;;;;;;;;5055089;28;20470;-60
2023/06/17 13:54:59;;;;;;;4.53;2.60;;;;;;;;;;5072711;28;20056;-61
2023/06/17 13:57:27;;;;;;;3.97;2.58;;;;;;;;;;5072998;28;20044;-61
2023/06/17 13:59:56;;;;;;;3.63;2.28;;;;;;;;;;5073711;28;20461;-59
2023/06/17 14:02:24;;;;;;;5.03;2.55;;;;;;;;;;5071000;28;20092;-64
2023/06/17 14:04:53;;;;;;;4.22;2.60;;;;;;;;;;5070780;28;20083;-60
2023/06/17 14:07:23;;;;;;;3.97;2.47;;;;;;;;;;5062898;28;20137;-59
2023/06/17 14:09:51;;;;;;;3.90;2.35;;;;;;;;;;5066918;28;20095;-61
2023/06/17 14:12:20;;;;;;;6.68;2.40;;;;;;;;;;5071667;28;20052;-60
2023/06/17 14:14:48;;;;;;;5.22;3.10;;;;;;;;;;5070697;28;20075;-61
2023/06/17 14:17:17;;;;;;;2.92;2.05;;;;;;;;;;5072265;28;20051;-62
2023/06/17 14:19:45;;;;;;;6.20;2.92;;;;;;;;;;5071946;28;20389;-59
2023/06/17 14:22:14;;;;;;;4.75;2.25;;;;;;;;;;5072861;28;20074;-60
2023/06/17 14:24:43;;;;;;;6.32;2.72;;;;;;;;;;5066992;28;20056;-60
2023/06/17 14:27:24;;;;;;;4.85;2.90;;;;;;;;;;5072714;28;20110;-61
2023/06/17 14:29:53;;;;;;;4.75;2.63;;;;;;;;;;5066216;28;20049;-60
2023/06/17 14:32:21;;;;;;;3.58;2.67;;;;;;;;;;5071937;28;20052;-60
2023/06/17 14:34:50;;;;;;;4.47;2.70;;;;;;;;;;5071175;28;20044;-60
2023/06/17 14:37:19;;;;;;;5.60;2.90;;;;;;;;;;5070943;28;20071;-59
2023/06/17 14:39:48;;;;;;;5.47;2.92;;;;;;;;;;5064362;28;20591;-62
2023/06/17 14:42:17;;;;;;;4.00;2.60;;;;;;;;;;5071702;28;20090;-63
2023/06/17 14:44:45;;;;;;;3.85;2.78;;;;;;;;;;5071720;28;20068;-59
2023/06/17 14:47:13;;;;;;;5.47;2.55;;;;;;;;;;5072913;28;20094;-60
2023/06/17 14:49:42;;;;;;;6.78;2.92;;;;;;;;;;5072350;28;20055;-60
2023/06/17 14:52:10;;;;;;;4.65;2.72;;;;;;;;;;5071490;28;20109;-61
2023/06/17 14:54:38;;;;;;;3.70;2.58;;;;;;;;;;5064562;28;20460;-60